Time;durP1;ratioP1;P1;durP2;ratioP2;P2;SDS_P1;SDS_P2;PMS_P1;PMS_P2;Temp;Humidity;BMP_temperature;BMP_pressure;BME280_temperature;BME280_humidity;BME280_pressure;Samples;Min_cycle;Max_cycle;Signal;HPM_P1;HPM_P2
2021/08/25 00:01:06;;;;;;;12.65;10.30;;;15.90;99.90;;;;;;5033664;28;20470;-58
2021/08/25 00:03:32;;;;;;;12.85;10.35;;;15.90;99.90;;;;;;5033735;28;20033;-58
2021/08/25 00:05:57;;;;;;;15.65;11.23;;;15.90;99.90;;;;;;5033321;28;20033;-58
2021/08/25 00:08:23;;;;;;;12.05;10.85;;;15.90;99.90;;;;;;5033640;28;20100;-58
2021/08/25 00:10:49;;;;;;;11.93;10.30;;;15.90;99.90;;;;;;5033343;28;20029;-58
2021/08/25 00:13:18;;;;;;;14.75;10.02;;;15.80;99.90;;;;;;5033408;28;20443;-58
2021/08/25 00:15:44;;;;;;;12.00;10.27;;;15.80;99.90;;;;;;5033209;28;20482;-58
2021/08/25 00:18:10;;;;;;;13.50;10.05;;;15.80;99.90;;;;;;5033296;28;20097;-58
2021/08/25 00:20:37;;;;;;;13.70;10.65;;;15.80;99.90;;;;;;5032985;28;20021;-58
2021/08/25 00:23:03;;;;;;;12.23;10.27;;;15.70;99.90;;;;;;5033231;28;20044;-58
2021/08/25 00:25:29;;;;;;;15.77;11.98;;;15.70;99.90;;;;;;5033298;28;20026;-58
2021/08/25 00:27:55;;;;;;;13.93;10.85;;;15.90;99.90;;;;;;5033083;28;20083;-58
2021/08/25 00:30:21;;;;;;;13.25;10.45;;;15.90;99.90;;;;;;5032915;28;20026;-58
2021/08/25 00:32:47;;;;;;;15.52;11.05;;;15.80;99.90;;;;;;5032955;28;20076;-58
2021/08/25 00:35:13;;;;;;;12.27;10.98;;;15.70;99.90;;;;;;5032923;28;20045;-58
2021/08/25 00:37:39;;;;;;;12.13;10.88;;;15.60;99.90;;;;;;5033072;28;20107;-58
2021/08/25 00:40:06;;;;;;;11.68;10.48;;;15.60;99.90;;;;;;5032811;28;20035;-57
2021/08/25 00:42:32;;;;;;;14.00;11.48;;;15.50;99.90;;;;;;5032603;28;20025;-58
2021/08/25 00:45:03;;;;;;;15.00;11.52;;;15.50;99.90;;;;;;5032855;28;20108;-58
2021/08/25 00:47:42;;;;;;;14.20;11.43;;;15.50;99.90;;;;;;5031569;28;20036;-58
2021/08/25 00:50:10;;;;;;;15.43;12.07;;;15.50;99.90;;;;;;5032844;28;20054;-58
2021/08/25 00:52:41;;;;;;;13.10;11.73;;;15.40;99.90;;;;;;5032684;28;20025;-58
2021/08/25 00:55:11;;;;;;;13.30;11.55;;;15.40;99.90;;;;;;5032825;28;20026;-58
2021/08/25 00:57:37;;;;;;;16.15;12.13;;;15.40;99.90;;;;;;5032468;28;20290;-58
2021/08/25 01:00:13;;;;;;;13.30;11.45;;;15.40;99.90;;;;;;5032453;28;20117;-58
2021/08/25 01:02:51;;;;;;;15.10;12.30;;;15.30;99.90;;;;;;5032429;28;20528;-58
2021/08/25 01:05:18;;;;;;;14.05;12.65;;;15.30;99.90;;;;;;5032354;28;20029;-58
2021/08/25 01:07:45;;;;;;;15.90;13.70;;;15.30;99.90;;;;;;5032438;28;20483;-57
2021/08/25 01:10:41;;;;;;;15.35;13.48;;;15.30;99.90;;;;;;5032466;28;20030;-58
2021/08/25 01:13:09;;;;;;;17.23;13.68;;;15.20;99.90;;;;;;5026658;28;20508;-57
2021/08/25 01:15:38;;;;;;;18.65;13.45;;;15.20;99.90;;;;;;5032135;28;20051;-58
2021/08/25 01:18:11;;;;;;;19.38;14.70;;;15.20;99.90;;;;;;5032064;28;20025;-57
2021/08/25 01:20:38;;;;;;;17.55;15.68;;;15.20;99.90;;;;;;5030941;28;20053;-58
2021/08/25 01:23:04;;;;;;;18.25;15.70;;;15.20;99.90;;;;;;5031764;28;20561;-58
2021/08/25 01:25:31;;;;;;;19.65;15.73;;;15.20;99.90;;;;;;5032106;28;20474;-58
2021/08/25 01:28:03;;;;;;;19.42;15.93;;;15.20;99.90;;;;;;5032200;28;20455;-58
2021/08/25 01:30:32;;;;;;;18.88;15.85;;;15.20;99.90;;;;;;5030545;28;20018;-58
2021/08/25 01:33:01;;;;;;;18.77;16.10;;;15.10;99.90;;;;;;5030970;28;20068;-58
2021/08/25 01:35:37;;;;;;;20.58;17.85;;;15.10;99.90;;;;;;5031769;28;20498;-58
2021/08/25 01:38:03;;;;;;;19.23;17.13;;;15.20;99.90;;;;;;5031995;28;20034;-58
2021/08/25 01:40:33;;;;;;;19.88;16.13;;;15.20;99.90;;;;;;5032015;28;20470;-58
2021/08/25 01:42:59;;;;;;;20.67;18.52;;;15.20;99.90;;;;;;5031833;28;20037;-58
2021/08/25 01:45:26;;;;;;;20.63;17.88;;;15.10;99.90;;;;;;5032085;28;20029;-57
2021/08/25 01:47:51;;;;;;;19.70;17.60;;;15.10;99.90;;;;;;5031872;28;20410;-58
2021/08/25 01:50:17;;;;;;;20.52;17.40;;;15.10;99.90;;;;;;5031795;28;20026;-58
2021/08/25 01:52:42;;;;;;;20.20;18.10;;;15.00;99.90;;;;;;5032155;28;20116;-58
2021/08/25 01:55:08;;;;;;;21.52;16.92;;;14.90;99.90;;;;;;5031805;28;20029;-58
2021/08/25 01:57:34;;;;;;;20.42;17.23;;;14.90;99.90;;;;;;5031661;28;20120;-58
2021/08/25 02:00:00;;;;;;;19.52;17.25;;;14.80;99.90;;;;;;5031860;28;20022;-58
2021/08/25 02:02:25;;;;;;;19.35;17.27;;;14.80;99.90;;;;;;5031678;28;20030;-58
2021/08/25 02:04:51;;;;;;;24.48;17.65;;;14.80;99.90;;;;;;5032189;28;20021;-57
2021/08/25 02:07:17;;;;;;;19.50;17.05;;;14.80;99.90;;;;;;5031612;28;20044;-58
2021/08/25 02:09:43;;;;;;;21.50;17.35;;;14.80;99.90;;;;;;5031722;28;20095;-57
2021/08/25 02:12:09;;;;;;;19.95;17.90;;;14.80;99.90;;;;;;5031656;28;20029;-58
2021/08/25 02:14:35;;;;;;;20.05;17.95;;;14.70;99.90;;;;;;5030264;28;20436;-58
2021/08/25 02:17:01;;;;;;;19.48;17.35;;;14.70;99.90;;;;;;5031515;28;20026;-58
2021/08/25 02:19:26;;;;;;;19.92;17.60;;;14.70;99.90;;;;;;5030109;28;20025;-58
2021/08/25 02:21:52;;;;;;;19.88;17.65;;;14.60;99.90;;;;;;5031335;28;20149;-58
2021/08/25 02:24:18;;;;;;;20.48;18.15;;;14.60;99.90;;;;;;5031359;28;20083;-58
2021/08/25 02:26:43;;;;;;;20.65;17.63;;;14.60;99.90;;;;;;5031459;28;20482;-58
2021/08/25 02:29:09;;;;;;;27.38;18.88;;;14.60;99.90;;;;;;5031414;28;20429;-58
2021/08/25 02:31:34;;;;;;;20.75;17.58;;;14.60;99.90;;;;;;5031397;28;20029;-57
2021/08/25 02:34:00;;;;;;;24.30;19.00;;;14.60;99.90;;;;;;5030317;28;20103;-57
2021/08/25 02:36:25;;;;;;;25.98;19.08;;;14.70;99.90;;;;;;5034653;28;20046;-58
2021/08/25 02:38:51;;;;;;;21.90;17.50;;;14.70;99.90;;;;;;5033805;28;20489;-57
2021/08/25 02:41:19;;;;;;;20.92;18.10;;;14.60;99.90;;;;;;5034894;28;20053;-58
2021/08/25 02:43:45;;;;;;;19.48;17.42;;;14.60;99.90;;;;;;5035293;28;20390;-58
2021/08/25 02:46:11;;;;;;;21.00;17.55;;;14.50;99.90;;;;;;5034851;28;20022;-57
2021/08/25 02:48:36;;;;;;;23.60;18.42;;;14.50;99.90;;;;;;5034966;28;20079;-58
2021/08/25 02:51:02;;;;;;;20.30;17.02;;;14.50;99.90;;;;;;5034851;28;20588;-58
2021/08/25 02:53:28;;;;;;;22.17;18.98;;;14.50;99.90;;;;;;5034792;28;20022;-58
2021/08/25 02:55:53;;;;;;;22.58;18.40;;;14.50;99.90;;;;;;5034782;28;20103;-58
2021/08/25 02:58:19;;;;;;;20.75;18.55;;;14.50;99.90;;;;;;5034736;28;20025;-58
2021/08/25 03:00:45;;;;;;;21.75;19.08;;;14.50;99.90;;;;;;5034767;28;20027;-58
2021/08/25 03:03:11;;;;;;;21.23;19.08;;;14.50;99.90;;;;;;5034743;28;20414;-58
2021/08/25 03:05:37;;;;;;;22.25;19.83;;;14.40;99.90;;;;;;5034641;28;20037;-57
2021/08/25 03:08:03;;;;;;;23.10;18.63;;;14.40;99.90;;;;;;5033348;28;20021;-58
2021/08/25 03:10:28;;;;;;;21.23;18.90;;;14.40;99.90;;;;;;5034471;28;20036;-58
2021/08/25 03:12:54;;;;;;;23.17;19.15;;;14.30;99.90;;;;;;5033294;28;20054;-57
2021/08/25 03:15:20;;;;;;;22.35;19.15;;;14.30;99.90;;;;;;5034620;28;20040;-57
2021/08/25 03:17:45;;;;;;;21.77;18.42;;;14.30;99.90;;;;;;5034152;28;20087;-56
2021/08/25 03:20:12;;;;;;;24.75;19.00;;;14.30;99.90;;;;;;5034297;28;20025;-57
2021/08/25 03:22:38;;;;;;;21.23;18.10;;;14.20;99.90;;;;;;5034721;28;20034;-57
2021/08/25 03:25:06;;;;;;;21.20;18.38;;;14.20;99.90;;;;;;5034278;28;20024;-57
2021/08/25 03:27:32;;;;;;;21.77;19.30;;;14.20;99.90;;;;;;5034239;28;20037;-57
2021/08/25 03:29:58;;;;;;;23.73;19.50;;;14.20;99.90;;;;;;5034155;28;20030;-57
2021/08/25 03:32:23;;;;;;;21.20;18.73;;;14.30;99.90;;;;;;5034194;28;20025;-57
2021/08/25 03:34:49;;;;;;;21.70;19.30;;;14.20;99.90;;;;;;5033823;28;20036;-57
2021/08/25 03:37:15;;;;;;;21.73;18.83;;;14.20;99.90;;;;;;5033950;28;20079;-57
2021/08/25 03:39:40;;;;;;;25.77;20.20;;;14.20;99.90;;;;;;5034306;28;20108;-57
2021/08/25 03:42:08;;;;;;;20.00;17.90;;;14.20;99.90;;;;;;5033871;28;20021;-57
2021/08/25 03:44:38;;;;;;;25.77;19.13;;;14.20;99.90;;;;;;5034023;28;20025;-57
2021/08/25 03:47:08;;;;;;;22.77;19.23;;;14.10;99.90;;;;;;5033246;28;20029;-57
2021/08/25 03:49:35;;;;;;;22.65;18.85;;;14.00;99.90;;;;;;5033681;28;20025;-57
2021/08/25 03:52:01;;;;;;;22.63;19.42;;;14.00;99.90;;;;;;5033547;28;20083;-57
2021/08/25 03:54:27;;;;;;;25.40;19.45;;;14.00;99.90;;;;;;5033781;28;20029;-57
2021/08/25 03:56:54;;;;;;;26.15;18.90;;;14.00;99.90;;;;;;5033694;28;20037;-57
2021/08/25 03:59:20;;;;;;;23.20;18.42;;;14.00;99.90;;;;;;5032524;28;20022;-57
2021/08/25 04:01:46;;;;;;;20.58;18.38;;;14.00;99.90;;;;;;5033797;28;20494;-57
2021/08/25 04:04:11;;;;;;;25.52;18.42;;;14.00;99.90;;;;;;5033581;28;20025;-57
2021/08/25 04:06:38;;;;;;;23.13;18.75;;;14.00;99.90;;;;;;5033384;28;20041;-57
2021/08/25 04:09:05;;;;;;;24.92;18.50;;;14.00;99.90;;;;;;5033450;28;20025;-57
2021/08/25 04:11:32;;;;;;;23.67;19.27;;;14.00;99.90;;;;;;5033416;28;20044;-57
2021/08/25 04:13:59;;;;;;;21.05;18.30;;;14.00;99.90;;;;;;5033444;28;20433;-58
2021/08/25 04:16:25;;;;;;;21.75;19.13;;;13.90;99.90;;;;;;5033156;28;20025;-57
2021/08/25 04:18:50;;;;;;;20.75;18.60;;;13.90;99.90;;;;;;5033092;28;20029;-57
2021/08/25 04:21:16;;;;;;;23.75;18.13;;;13.80;99.90;;;;;;5033140;28;20033;-57
2021/08/25 04:23:42;;;;;;;22.48;19.25;;;13.80;99.90;;;;;;5033221;28;20290;-57
2021/08/25 04:26:08;;;;;;;20.40;18.20;;;13.80;99.90;;;;;;5031792;28;20544;-57
2021/08/25 04:28:34;;;;;;;25.83;18.48;;;13.80;99.90;;;;;;5032919;28;20474;-56
2021/08/25 04:31:00;;;;;;;23.35;18.45;;;13.80;99.90;;;;;;5032918;28;20040;-57
2021/08/25 04:33:34;;;;;;;25.02;18.10;;;13.80;99.90;;;;;;5032984;28;20538;-57
2021/08/25 04:35:59;;;;;;;22.45;18.33;;;13.80;99.90;;;;;;5032642;28;20098;-57
2021/08/25 04:38:26;;;;;;;23.30;18.75;;;13.80;99.90;;;;;;5032925;28;20025;-57
2021/08/25 04:40:53;;;;;;;22.98;17.52;;;13.80;99.90;;;;;;5032704;28;20034;-57
2021/08/25 04:43:19;;;;;;;27.77;19.00;;;13.80;99.90;;;;;;5032540;28;20136;-57
2021/08/25 04:45:44;;;;;;;21.40;19.02;;;13.70;99.90;;;;;;5032803;28;20119;-56
2021/08/25 04:48:10;;;;;;;24.23;18.10;;;13.80;99.90;;;;;;5032689;28;20037;-57
2021/08/25 04:50:36;;;;;;;21.85;18.15;;;13.70;99.90;;;;;;5032564;28;20506;-57
2021/08/25 04:53:06;;;;;;;24.55;18.85;;;13.70;99.90;;;;;;5032513;28;20124;-57
2021/08/25 04:55:33;;;;;;;26.48;17.98;;;13.80;99.90;;;;;;5032783;28;20155;-57
2021/08/25 04:57:59;;;;;;;25.40;17.80;;;13.80;99.90;;;;;;5031638;28;20529;-57
2021/08/25 05:00:25;;;;;;;19.90;17.05;;;13.70;99.90;;;;;;5028792;28;20097;-57
2021/08/25 05:02:50;;;;;;;25.65;17.25;;;13.70;99.90;;;;;;5032105;28;20489;-57
2021/08/25 05:05:16;;;;;;;20.50;17.08;;;13.70;99.90;;;;;;5030494;28;20018;-57
2021/08/25 05:07:41;;;;;;;21.25;17.40;;;13.70;99.90;;;;;;5031545;28;20108;-57
2021/08/25 05:10:07;;;;;;;21.98;17.00;;;13.70;99.90;;;;;;5032203;28;20047;-57
2021/08/25 05:12:34;;;;;;;22.17;16.88;;;13.70;99.90;;;;;;5031885;28;20429;-57
2021/08/25 05:14:59;;;;;;;22.90;16.40;;;13.70;99.90;;;;;;5030456;28;20390;-57
2021/08/25 05:17:25;;;;;;;19.13;16.45;;;13.70;99.90;;;;;;5031846;28;20022;-58
2021/08/25 05:19:50;;;;;;;19.95;15.60;;;13.70;99.90;;;;;;5031751;28;20032;-57
2021/08/25 05:22:16;;;;;;;23.05;16.70;;;13.70;99.90;;;;;;5032298;28;20112;-57
2021/08/25 05:24:41;;;;;;;21.67;16.67;;;13.80;99.90;;;;;;5030667;28;20052;-57
2021/08/25 05:27:07;;;;;;;22.15;16.73;;;13.80;99.90;;;;;;5032068;28;20041;-57
2021/08/25 05:29:33;;;;;;;20.33;17.13;;;13.80;99.90;;;;;;5031902;28;20030;-57
2021/08/25 05:31:58;;;;;;;19.80;16.58;;;13.90;99.90;;;;;;5030578;28;20029;-57
2021/08/25 05:34:24;;;;;;;20.63;16.20;;;13.90;99.90;;;;;;5031981;28;20029;-57
2021/08/25 05:36:49;;;;;;;19.05;15.73;;;13.90;99.90;;;;;;5031733;28;20489;-58
2021/08/25 05:39:15;;;;;;;18.83;15.98;;;13.90;99.90;;;;;;5031828;28;20056;-58
2021/08/25 05:41:41;;;;;;;22.00;16.25;;;14.00;99.90;;;;;;5031783;28;20021;-58
2021/08/25 05:44:06;;;;;;;20.23;15.52;;;14.00;99.90;;;;;;5031680;28;20022;-58
2021/08/25 05:46:33;;;;;;;22.73;16.17;;;14.00;99.90;;;;;;5030547;28;20037;-58
2021/08/25 05:48:59;;;;;;;19.30;15.10;;;14.10;99.90;;;;;;5031832;28;20030;-57
2021/08/25 05:51:25;;;;;;;19.67;15.65;;;14.10;99.90;;;;;;5031866;28;20391;-57
2021/08/25 05:53:52;;;;;;;18.55;14.50;;;14.10;99.90;;;;;;5030997;28;20032;-57
2021/08/25 05:56:18;;;;;;;22.02;14.70;;;14.10;99.90;;;;;;5013096;28;20112;-57
2021/08/25 05:58:44;;;;;;;20.27;14.82;;;14.20;99.90;;;;;;5025264;28;20458;-57
2021/08/25 06:01:14;;;;;;;18.02;13.35;;;14.30;99.90;;;;;;5031256;28;20076;-57
2021/08/25 06:03:40;;;;;;;18.38;13.57;;;14.30;99.90;;;;;;5029368;28;20028;-57
2021/08/25 06:06:05;;;;;;;18.50;13.55;;;14.40;99.90;;;;;;5028959;28;20026;-57
2021/08/25 06:08:31;;;;;;;24.00;14.30;;;14.60;99.90;;;;;;5020507;28;20025;-58
2021/08/25 06:10:56;;;;;;;26.10;14.02;;;14.80;99.90;;;;;;5032709;28;20030;-58
2021/08/25 06:13:22;;;;;;;16.85;13.90;;;15.00;99.90;;;;;;5032113;28;20037;-57
2021/08/25 06:15:47;;;;;;;20.55;13.10;;;15.00;99.90;;;;;;5028453;28;20064;-57
2021/08/25 06:18:13;;;;;;;17.45;12.13;;;15.00;99.90;;;;;;5027111;28;20030;-57
2021/08/25 06:20:39;;;;;;;19.13;11.52;;;15.00;99.90;;;;;;5031556;28;20498;-57
2021/08/25 06:23:04;;;;;;;15.35;11.90;;;15.10;99.90;;;;;;5031069;28;20108;-57
2021/08/25 06:25:30;;;;;;;20.77;11.85;;;15.30;99.90;;;;;;5033569;28;20025;-57
2021/08/25 06:27:55;;;;;;;15.85;11.55;;;15.30;99.90;;;;;;5024562;28;20033;-57
2021/08/25 06:30:21;;;;;;;19.15;10.82;;;15.30;99.90;;;;;;5025546;28;20488;-57
2021/08/25 06:32:47;;;;;;;15.95;10.93;;;15.40;99.90;;;;;;5028643;28;20044;-57
2021/08/25 06:35:13;;;;;;;16.10;10.52;;;15.50;99.90;;;;;;5022564;28;20337;-57
2021/08/25 06:37:38;;;;;;;18.98;10.57;;;15.50;99.90;;;;;;5026688;28;20083;-57
2021/08/25 06:40:05;;;;;;;13.52;10.02;;;15.70;99.90;;;;;;5028739;28;20014;-57
2021/08/25 06:42:30;;;;;;;16.65;10.13;;;15.70;99.90;;;;;;5027971;28;20289;-57
2021/08/25 06:44:56;;;;;;;16.10;10.18;;;15.80;99.90;;;;;;5028025;28;20030;-57
2021/08/25 06:47:21;;;;;;;13.38;10.48;;;16.00;99.90;;;;;;5032670;28;20041;-57
2021/08/25 06:49:47;;;;;;;15.23;10.20;;;16.00;99.90;;;;;;5025422;28;20052;-58
2021/08/25 06:52:13;;;;;;;12.50;10.15;;;16.10;99.90;;;;;;5032445;28;20033;-57
2021/08/25 06:54:39;;;;;;;13.57;9.90;;;16.10;99.90;;;;;;5027934;28;20394;-58
2021/08/25 06:57:05;;;;;;;14.38;10.00;;;16.20;99.90;;;;;;5013446;28;20033;-58
2021/08/25 06:59:30;;;;;;;16.75;9.70;;;16.20;99.90;;;;;;5018236;28;20511;-58
2021/08/25 07:01:56;;;;;;;13.55;9.55;;;16.40;99.90;;;;;;5028156;28;20036;-58
2021/08/25 07:04:21;;;;;;;14.88;10.27;;;16.40;99.90;;;;;;5028322;28;20013;-58
2021/08/25 07:06:47;;;;;;;15.15;9.77;;;16.50;99.90;;;;;;5029942;28;20056;-58
2021/08/25 07:09:13;;;;;;;17.45;9.77;;;16.50;99.90;;;;;;5035790;28;20106;-58
2021/08/25 07:11:39;;;;;;;13.90;9.43;;;16.70;99.90;;;;;;5027164;28;20045;-58
2021/08/25 07:14:05;;;;;;;12.60;9.45;;;16.80;99.90;;;;;;5039585;28;20039;-58
2021/08/25 07:16:36;;;;;;;14.00;9.65;;;16.90;99.90;;;;;;5029061;28;20029;-58
2021/08/25 07:19:03;;;;;;;12.07;8.90;;;16.80;99.90;;;;;;5027308;28;20044;-58
2021/08/25 07:21:29;;;;;;;17.45;9.75;;;17.00;99.90;;;;;;5020442;28;20109;-58
2021/08/25 07:23:55;;;;;;;12.38;8.30;;;17.10;99.90;;;;;;5017720;28;20018;-58
2021/08/25 07:26:21;;;;;;;11.73;8.20;;;18.00;99.90;;;;;;5024819;28;20022;-58
2021/08/25 07:28:46;;;;;;;14.18;7.95;;;19.60;99.90;;;;;;5026446;28;20466;-58
2021/08/25 07:31:13;;;;;;;12.43;7.53;;;20.80;99.90;;;;;;5024243;28;20044;-58
2021/08/25 07:33:40;;;;;;;10.85;7.38;;;22.20;99.90;;;;;;5030827;28;20032;-59
2021/08/25 07:36:06;;;;;;;11.45;7.18;;;23.10;99.90;;;;;;5019506;28;20045;-59
2021/08/25 07:38:32;;;;;;;9.30;6.90;;;23.80;99.90;;;;;;5022079;28;20022;-58
2021/08/25 07:40:57;;;;;;;9.65;6.93;;;23.90;99.90;;;;;;5023334;28;20034;-59
2021/08/25 07:43:23;;;;;;;13.07;7.10;;;24.80;99.50;;;;;;5021001;28;20382;-59
2021/08/25 07:45:49;;;;;;;12.80;6.82;;;25.40;97.60;;;;;;5012110;28;20461;-59
2021/08/25 07:48:15;;;;;;;7.90;6.53;;;25.50;96.90;;;;;;5016917;28;20040;-59
2021/08/25 07:50:40;;;;;;;11.05;6.70;;;25.80;96.50;;;;;;5029912;28;20025;-59
2021/08/25 07:53:06;;;;;;;8.82;6.65;;;26.60;95.60;;;;;;5022685;28;20470;-59
2021/08/25 07:55:32;;;;;;;12.88;7.20;;;27.00;94.20;;;;;;5026377;28;20030;-59
2021/08/25 07:57:57;;;;;;;12.30;7.28;;;26.90;93.10;;;;;;5027849;28;20033;-59
2021/08/25 08:00:23;;;;;;;10.57;6.97;;;26.60;93.30;;;;;;5024944;28;20068;-59
2021/08/25 08:02:49;;;;;;;10.45;6.85;;;25.90;94.50;;;;;;5023628;28;20053;-59
2021/08/25 08:05:14;;;;;;;11.10;6.90;;;26.30;93.90;;;;;;5013742;28;20557;-59
2021/08/25 08:07:41;;;;;;;10.48;6.70;;;26.30;93.50;;;;;;5019976;28;20033;-59
2021/08/25 08:10:07;;;;;;;11.60;6.95;;;26.60;93.10;;;;;;5024955;28;20037;-59
2021/08/25 08:12:32;;;;;;;10.98;6.90;;;26.80;91.70;;;;;;5021947;28;20116;-59
2021/08/25 08:14:58;;;;;;;10.00;6.25;;;27.20;90.70;;;;;;5024957;28;20121;-59
2021/08/25 08:17:24;;;;;;;10.65;6.93;;;26.70;90.90;;;;;;5028533;28;20029;-59
2021/08/25 08:19:50;;;;;;;11.18;6.38;;;26.30;91.90;;;;;;5027952;28;20466;-59
2021/08/25 08:22:15;;;;;;;10.52;7.03;;;26.10;92.20;;;;;;5024926;28;20040;-59
2021/08/25 08:24:41;;;;;;;10.50;6.05;;;26.70;91.60;;;;;;5025491;28;20037;-59
2021/08/25 08:27:07;;;;;;;9.73;6.57;;;27.50;90.40;;;;;;5026149;28;20071;-59
2021/08/25 08:29:34;;;;;;;9.00;6.35;;;27.50;89.40;;;;;;5025241;28;20060;-60
2021/08/25 08:32:01;;;;;;;11.80;7.13;;;27.50;90.10;;;;;;5026974;28;20029;-59
2021/08/25 08:34:27;;;;;;;8.70;6.53;;;28.00;88.60;;;;;;5025544;28;20105;-59
2021/08/25 08:36:53;;;;;;;11.25;6.53;;;27.40;89.60;;;;;;5024878;28;20463;-59
2021/08/25 08:39:19;;;;;;;9.55;6.30;;;27.20;90.30;;;;;;5023318;28;20068;-59
2021/08/25 08:41:44;;;;;;;9.63;6.57;;;27.10;89.90;;;;;;5023900;28;20021;-59
2021/08/25 08:44:16;;;;;;;8.65;5.72;;;27.20;87.50;;;;;;5025126;28;20037;-59
2021/08/25 08:46:42;;;;;;;9.50;6.00;;;26.60;89.00;;;;;;5014493;28;20037;-60
2021/08/25 08:49:09;;;;;;;11.77;6.35;;;26.40;90.30;;;;;;5020599;28;20048;-59
2021/08/25 08:51:37;;;;;;;7.95;6.15;;;27.10;88.60;;;;;;5027085;28;20044;-59
2021/08/25 08:54:03;;;;;;;10.77;6.15;;;27.70;87.60;;;;;;5023952;28;20044;-59
2021/08/25 08:56:29;;;;;;;11.95;5.90;;;27.30;88.70;;;;;;5027604;28;20526;-59
2021/08/25 08:58:56;;;;;;;10.00;6.05;;;27.00;86.90;;;;;;5026968;28;20142;-59
2021/08/25 09:01:23;;;;;;;7.97;6.28;;;27.00;87.70;;;;;;5026253;28;20463;-60
2021/08/25 09:03:48;;;;;;;12.65;6.20;;;27.50;85.70;;;;;;5026507;28;20034;-59
2021/08/25 09:06:14;;;;;;;8.13;5.88;;;27.70;85.80;;;;;;5021144;28;20445;-59
2021/08/25 09:08:40;;;;;;;12.05;6.22;;;28.00;85.20;;;;;;5025453;28;20413;-59
2021/08/25 09:11:15;;;;;;;11.93;5.40;;;27.60;86.30;;;;;;5026556;28;20024;-59
2021/08/25 09:13:49;;;;;;;9.00;5.47;;;27.80;85.30;;;;;;5023520;28;20029;-59
2021/08/25 09:16:35;;;;;;;8.18;5.30;;;28.10;83.30;;;;;;5028631;28;20363;-60
2021/08/25 09:19:09;;;;;;;9.32;5.75;;;27.70;82.40;;;;;;5027951;28;20108;-59
2021/08/25 09:21:41;;;;;;;9.45;5.38;;;28.10;82.80;;;;;;5029411;28;20030;-60
2021/08/25 09:24:08;;;;;;;7.53;5.38;;;28.50;80.60;;;;;;5025194;28;20378;-60
2021/08/25 09:26:35;;;;;;;9.98;5.68;;;28.40;80.50;;;;;;5025607;28;20036;-60
2021/08/25 09:29:17;;;;;;;7.90;5.65;;;27.80;80.80;;;;;;5025126;28;20454;-59
2021/08/25 09:31:47;;;;;;;7.25;5.43;;;27.70;81.40;;;;;;5029662;28;20025;-59
2021/08/25 09:34:31;;;;;;;8.20;5.78;;;27.80;80.20;;;;;;5030893;28;20044;-59
2021/08/25 09:37:18;;;;;;;7.90;5.55;;;28.00;78.80;;;;;;5025975;28;20454;-59
2021/08/25 09:39:49;;;;;;;10.57;5.22;;;28.10;81.00;;;;;;5027091;28;20124;-59
2021/08/25 09:42:16;;;;;;;7.50;4.85;;;27.50;78.80;;;;;;5021924;28;20029;-59
2021/08/25 09:44:43;;;;;;;8.40;4.75;;;27.20;80.20;;;;;;5022549;28;20036;-59
2021/08/25 09:47:09;;;;;;;7.78;4.78;;;27.00;79.80;;;;;;5028777;28;20084;-59
2021/08/25 09:49:35;;;;;;;9.05;5.15;;;26.90;81.10;;;;;;5031001;28;20072;-59
2021/08/25 09:52:01;;;;;;;8.43;4.55;;;26.60;82.00;;;;;;5028337;28;20022;-60
2021/08/25 09:54:27;;;;;;;6.63;4.70;;;26.80;82.00;;;;;;5021341;28;20026;-60
2021/08/25 09:56:54;;;;;;;7.43;4.60;;;27.10;81.20;;;;;;5016815;28;20163;-60
2021/08/25 09:59:21;;;;;;;6.05;4.07;;;27.20;79.10;;;;;;5024767;28;20437;-60
2021/08/25 10:01:49;;;;;;;6.93;4.75;;;27.50;78.80;;;;;;5028244;28;20438;-60
2021/08/25 10:04:16;;;;;;;5.90;3.80;;;27.70;77.60;;;;;;5028226;28;20053;-60
2021/08/25 10:06:49;;;;;;;4.70;3.60;;;27.80;77.50;;;;;;5020443;28;20125;-61
2021/08/25 10:09:16;;;;;;;4.93;3.90;;;27.90;77.60;;;;;;5024949;28;20029;-60
2021/08/25 10:11:52;;;;;;;6.07;3.83;;;28.10;75.70;;;;;;5028704;28;20022;-60
2021/08/25 10:14:18;;;;;;;4.70;3.45;;;27.90;76.40;;;;;;5022158;28;20033;-60
2021/08/25 10:16:49;;;;;;;5.85;3.78;;;27.70;76.40;;;;;;5014296;28;20499;-60
2021/08/25 10:19:40;;;;;;;6.80;4.05;;;27.90;76.20;;;;;;5003184;28;20030;-60
2021/08/25 10:22:14;;;;;;;6.05;4.03;;;28.00;76.80;;;;;;5024488;28;20123;-60
2021/08/25 10:25:02;;;;;;;4.85;3.70;;;28.30;74.70;;;;;;5025139;28;20033;-61
2021/08/25 10:27:30;;;;;;;5.40;3.65;;;28.10;74.70;;;;;;5028901;28;20033;-60
2021/08/25 10:30:02;;;;;;;6.45;3.28;;;28.10;75.00;;;;;;5024054;28;20044;-60
2021/08/25 10:32:32;;;;;;;6.88;3.60;;;28.40;75.00;;;;;;5021229;28;20126;-60
2021/08/25 10:35:18;;;;;;;7.82;3.55;;;28.40;74.40;;;;;;5022385;28;20034;-60
2021/08/25 10:37:46;;;;;;;6.85;3.72;;;28.60;73.80;;;;;;5016151;28;20103;-60
2021/08/25 10:40:13;;;;;;;4.95;3.38;;;29.00;73.40;;;;;;5020856;28;20040;-61
2021/08/25 10:42:53;;;;;;;5.30;3.65;;;29.00;73.00;;;;;;5023440;28;20033;-60
2021/08/25 10:45:44;;;;;;;4.25;3.53;;;29.80;73.60;;;;;;5020326;28;20035;-61
2021/08/25 10:48:10;;;;;;;4.38;3.50;;;29.60;72.80;;;;;;5023952;28;20029;-60
2021/08/25 10:50:55;;;;;;;6.35;4.03;;;28.70;72.90;;;;;;5025487;28;20029;-60
2021/08/25 10:53:32;;;;;;;7.90;3.70;;;28.60;73.10;;;;;;5027576;28;20028;-60
2021/08/25 10:56:11;;;;;;;5.13;3.50;;;29.60;72.50;;;;;;5028520;28;20033;-60
2021/08/25 10:59:03;;;;;;;5.47;3.40;;;30.60;69.60;;;;;;5019006;28;20528;-60
2021/08/25 11:01:43;;;;;;;4.82;3.25;;;30.20;68.60;;;;;;5010014;28;20376;-60
2021/08/25 11:04:20;;;;;;;6.20;3.70;;;29.80;68.10;;;;;;5024687;28;20432;-60
2021/08/25 11:07:10;;;;;;;6.13;3.90;;;29.80;68.70;;;;;;5021110;28;20441;-59
2021/08/25 11:09:38;;;;;;;5.72;4.03;;;29.30;69.50;;;;;;5023475;28;20129;-60
2021/08/25 11:12:08;;;;;;;5.95;3.63;;;28.70;70.20;;;;;;5025191;28;20115;-60
2021/08/25 11:14:38;;;;;;;7.38;3.88;;;28.70;70.70;;;;;;5033682;28;20034;-60
2021/08/25 11:17:30;;;;;;;4.82;3.78;;;28.80;70.90;;;;;;5025852;28;20035;-59
2021/08/25 11:20:01;;;;;;;6.82;4.22;;;29.10;70.10;;;;;;5023508;28;20036;-60
2021/08/25 11:22:32;;;;;;;6.18;3.85;;;28.90;69.40;;;;;;5021524;28;20029;-60
2021/08/25 11:25:07;;;;;;;4.88;3.88;;;28.50;69.90;;;;;;5055386;28;20025;-60
2021/08/25 11:27:39;;;;;;;6.00;3.90;;;28.60;70.20;;;;;;5028830;28;20103;-60
2021/08/25 11:30:12;;;;;;;6.65;3.50;;;29.00;68.00;;;;;;5006369;28;20371;-60
2021/08/25 11:32:45;;;;;;;7.20;4.07;;;29.60;67.70;;;;;;5006791;28;20067;-60
2021/08/25 11:35:14;;;;;;;5.78;4.03;;;29.40;68.10;;;;;;5027853;28;20550;-61
2021/08/25 11:37:44;;;;;;;5.22;3.90;;;29.40;67.90;;;;;;5021809;28;20116;-60
2021/08/25 11:40:10;;;;;;;8.15;4.10;;;30.10;65.70;;;;;;5021708;28;20033;-60
2021/08/25 11:42:37;;;;;;;6.25;4.43;;;30.30;67.60;;;;;;5027563;28;20297;-61
2021/08/25 11:45:28;;;;;;;7.75;3.88;;;30.10;68.10;;;;;;5027950;28;20029;-61
2021/08/25 11:47:56;;;;;;;6.55;4.70;;;30.60;65.10;;;;;;5025336;28;20057;-61
2021/08/25 11:50:27;;;;;;;5.85;4.00;;;30.60;63.40;;;;;;5021147;28;20036;-61
2021/08/25 11:52:53;;;;;;;7.97;4.30;;;30.90;64.60;;;;;;5016281;28;20040;-60
2021/08/25 11:55:20;;;;;;;7.28;4.25;;;30.00;65.10;;;;;;5024876;28;20017;-60
2021/08/25 11:57:47;;;;;;;5.30;4.05;;;29.80;66.30;;;;;;5031373;28;20037;-60
2021/08/25 12:00:15;;;;;;;5.45;4.00;;;30.30;66.10;;;;;;5030430;28;20026;-60
2021/08/25 12:02:55;;;;;;;5.57;4.07;;;30.70;65.60;;;;;;5019483;28;20502;-60
2021/08/25 12:05:49;;;;;;;7.65;4.65;;;31.50;64.60;;;;;;5014729;28;20612;-60
2021/08/25 12:08:15;;;;;;;6.25;4.82;;;31.90;61.20;;;;;;5014094;28;20031;-60
2021/08/25 12:10:43;;;;;;;6.15;4.95;;;31.90;61.40;;;;;;5030773;28;20405;-60
2021/08/25 12:13:29;;;;;;;7.50;4.60;;;31.80;61.20;;;;;;5028709;28;20083;-59
2021/08/25 12:15:55;;;;;;;7.03;4.93;;;31.80;61.00;;;;;;5022957;28;20049;-60
2021/08/25 12:18:23;;;;;;;7.95;4.38;;;30.40;63.20;;;;;;5025286;28;20179;-60
2021/08/25 12:21:06;;;;;;;7.57;4.32;;;29.90;64.00;;;;;;5022654;28;20037;-60
2021/08/25 12:23:32;;;;;;;5.45;4.57;;;29.60;64.20;;;;;;5026980;28;20048;-60
2021/08/25 12:25:58;;;;;;;7.18;4.53;;;30.00;62.30;;;;;;5028026;28;20026;-59
2021/08/25 12:28:35;;;;;;;7.88;4.43;;;30.00;61.70;;;;;;5021481;28;20556;-59
2021/08/25 12:31:25;;;;;;;5.75;4.47;;;29.90;62.50;;;;;;5028805;28;20381;-61
2021/08/25 12:34:14;;;;;;;6.53;4.60;;;30.00;63.20;;;;;;5021517;28;20147;-60
2021/08/25 12:36:53;;;;;;;7.47;4.45;;;31.10;60.50;;;;;;5027450;28;20045;-60
2021/08/25 12:39:23;;;;;;;6.40;4.57;;;30.80;59.80;;;;;;5028455;28;20045;-60